createdAt,value
2023-08-14T00:01:16.978Z,3.00
2023-08-14T00:03:46.870Z,3.08
2023-08-14T00:06:26.616Z,2.85
2023-08-14T00:09:00.427Z,2.83
2023-08-14T00:17:30.990Z,2.97
2023-08-14T00:20:19.107Z,2.80
2023-08-14T00:25:58.046Z,2.92
2023-08-14T00:28:59.583Z,2.80
2023-08-14T00:31:45.706Z,3.13
2023-08-14T00:34:24.665Z,2.97
2023-08-14T00:37:13.727Z,2.92
2023-08-14T00:43:02.311Z,2.70
2023-08-14T00:45:57.451Z,2.75
2023-08-14T00:48:48.683Z,2.53
2023-08-14T00:51:17.230Z,2.75
2023-08-14T00:53:57.461Z,2.90
2023-08-14T00:56:50.016Z,2.72
2023-08-14T01:02:11.668Z,3.78
2023-08-14T01:04:53.743Z,3.75
2023-08-14T01:07:41.365Z,3.03
2023-08-14T01:10:23.749Z,2.47
2023-08-14T01:13:21.675Z,2.75
2023-08-14T01:15:51.682Z,3.00
2023-08-14T01:19:24.543Z,2.47
2023-08-14T01:25:07.756Z,2.35
2023-08-14T01:28:23.303Z,2.80
2023-08-14T01:41:05.039Z,2.40
2023-08-14T01:46:46.996Z,2.28
2023-08-14T01:49:27.730Z,2.22
2023-08-14T01:52:16.663Z,2.10
2023-08-14T01:54:46.956Z,1.90
2023-08-14T01:57:13.887Z,2.10
2023-08-14T01:59:58.435Z,2.65
2023-08-14T02:02:36.370Z,2.28
2023-08-14T02:05:24.446Z,1.88
2023-08-14T02:08:08.262Z,2.20
2023-08-14T02:11:14.078Z,2.33
2023-08-14T02:14:00.197Z,2.15
2023-08-14T02:16:55.159Z,2.50
2023-08-14T02:19:40.202Z,2.20
2023-08-14T02:23:00.854Z,2.25
2023-08-14T02:27:08.034Z,1.75
2023-08-14T02:29:39.464Z,3.13
2023-08-14T02:32:38.348Z,2.75
2023-08-14T02:38:32.001Z,3.10
2023-08-14T02:41:26.536Z,3.10
2023-08-14T02:44:15.337Z,3.47
2023-08-14T02:46:50.206Z,2.80
2023-08-14T02:49:52.847Z,3.30
2023-08-14T02:55:53.996Z,3.50
2023-08-14T03:02:16.755Z,3.25
2023-08-14T03:14:26.641Z,3.17
2023-08-14T03:17:19.553Z,3.05
2023-08-14T03:23:20.941Z,2.67
2023-08-14T03:31:41.029Z,3.30
2023-08-14T03:34:30.200Z,2.63
2023-08-14T03:40:15.418Z,2.83
2023-08-14T03:43:16.379Z,3.17
2023-08-14T03:45:52.794Z,3.35
2023-08-14T03:48:40.428Z,3.25
2023-08-14T03:51:15.794Z,3.88
2023-08-14T03:54:07.469Z,3.90
2023-08-14T03:56:50.308Z,3.47
2023-08-14T04:00:05.353Z,3.70
2023-08-14T04:03:08.021Z,3.45
2023-08-14T04:06:05.163Z,3.13
2023-08-14T04:08:39.501Z,3.03
2023-08-14T04:11:10.834Z,3.35
2023-08-14T04:13:52.917Z,2.85
2023-08-14T04:16:49.719Z,3.15
2023-08-14T04:23:16.370Z,3.22
2023-08-14T04:25:30.321Z,3.20
2023-08-14T04:31:08.019Z,3.30
2023-08-14T04:36:42.956Z,2.97
2023-08-14T04:51:28.009Z,2.63
2023-08-14T04:54:11.257Z,2.58
2023-08-14T04:59:34.177Z,2.78
2023-08-14T05:02:13.480Z,2.83
2023-08-14T05:07:30.456Z,3.05
2023-08-14T05:13:15.286Z,3.20
2023-08-14T05:16:14.995Z,2.72
2023-08-14T05:18:53.158Z,2.70
2023-08-14T05:21:39.477Z,2.30
2023-08-14T05:24:16.907Z,2.05
2023-08-14T05:26:52.854Z,2.70
2023-08-14T05:30:16.784Z,2.70
2023-08-14T05:35:38.612Z,2.15
2023-08-14T05:38:25.168Z,2.47
2023-08-14T05:41:10.646Z,2.33
2023-08-14T05:44:03.557Z,2.45
2023-08-14T05:49:19.258Z,2.65
2023-08-14T05:52:08.912Z,2.00
2023-08-14T05:54:49.391Z,2.60
2023-08-14T05:57:27.095Z,2.38
2023-08-14T06:00:32.705Z,2.10
2023-08-14T06:03:16.508Z,1.85
2023-08-14T06:06:10.862Z,2.30
2023-08-14T06:08:58.351Z,2.20
2023-08-14T06:14:04.250Z,2.15
2023-08-14T06:16:52.251Z,2.30
2023-08-14T06:22:57.304Z,2.20
2023-08-14T06:25:48.168Z,2.33
2023-08-14T06:31:16.308Z,2.23
2023-08-14T06:36:28.837Z,2.20
2023-08-14T06:42:34.448Z,1.70
2023-08-14T06:45:23.576Z,2.28
2023-08-14T06:47:53.106Z,2.13
2023-08-14T06:56:14.453Z,2.53
2023-08-14T06:58:52.537Z,2.22
2023-08-14T07:02:17.830Z,2.00
2023-08-14T07:04:55.290Z,1.83
2023-08-14T07:12:59.586Z,1.85
2023-08-14T07:15:40.186Z,1.75
2023-08-14T07:18:15.464Z,1.80
2023-08-14T07:26:56.038Z,2.10
2023-08-14T07:29:27.943Z,1.75
2023-08-14T07:32:06.247Z,1.75
2023-08-14T07:34:50.458Z,1.83
2023-08-14T07:37:17.242Z,2.10
2023-08-14T07:39:44.093Z,2.00
2023-08-14T07:42:10.659Z,2.17
2023-08-14T07:44:37.840Z,2.10
2023-08-14T07:47:04.676Z,2.08
2023-08-14T07:49:39.593Z,1.75
2023-08-14T07:52:07.100Z,2.08
2023-08-14T07:54:33.945Z,2.10
2023-08-14T07:57:03.712Z,2.45
2023-08-14T07:59:30.327Z,2.38
2023-08-14T08:01:57.255Z,2.38
2023-08-14T08:04:27.096Z,2.15
2023-08-14T08:06:53.950Z,2.20
2023-08-14T08:09:20.840Z,1.95
2023-08-14T08:11:50.139Z,2.00
2023-08-14T08:14:17.393Z,1.80
2023-08-14T08:16:46.915Z,1.85
2023-08-14T08:19:13.691Z,1.83
2023-08-14T08:21:40.320Z,1.92
2023-08-14T08:24:07.367Z,1.90
2023-08-14T08:26:34.354Z,2.00
2023-08-14T08:29:01.502Z,1.50
2023-08-14T08:31:28.565Z,1.55
2023-08-14T08:33:55.378Z,1.60
2023-08-14T08:36:23.126Z,1.67
2023-08-14T08:38:49.918Z,1.80
2023-08-14T08:41:32.543Z,1.63
2023-08-14T08:44:16.017Z,1.58
2023-08-14T08:46:47.875Z,1.40
2023-08-14T08:49:14.909Z,1.60
2023-08-14T08:51:42.244Z,1.40
2023-08-14T08:54:09.624Z,1.80
2023-08-14T08:56:37.610Z,1.58
2023-08-14T08:59:05.096Z,1.50
2023-08-14T09:01:32.286Z,1.45
2023-08-14T09:03:59.108Z,1.58
2023-08-14T09:06:26.235Z,1.40
2023-08-14T09:08:53.120Z,1.60
2023-08-14T09:11:19.827Z,1.70
2023-08-14T09:13:46.901Z,1.70
2023-08-14T09:16:17.107Z,1.25
2023-08-14T09:18:47.265Z,1.42
2023-08-14T09:21:14.740Z,1.83
2023-08-14T09:23:42.245Z,1.08
2023-08-14T09:26:09.344Z,1.40
2023-08-14T09:28:39.885Z,1.40
2023-08-14T09:31:10.954Z,1.52
2023-08-14T09:33:46.949Z,1.08
2023-08-14T09:36:16.639Z,1.45
2023-08-14T09:38:43.372Z,1.50
2023-08-14T09:41:10.377Z,1.17
2023-08-14T09:43:37.445Z,1.48
2023-08-14T09:46:04.508Z,1.50
2023-08-14T09:48:42.108Z,1.30
2023-08-14T09:51:13.076Z,1.67
2023-08-14T09:53:56.571Z,1.63
2023-08-14T09:56:24.027Z,1.60
2023-08-14T09:58:51.532Z,1.65
2023-08-14T10:01:20.812Z,2.03
2023-08-14T10:03:50.422Z,1.90
2023-08-14T10:06:17.426Z,1.33
2023-08-14T10:13:07.380Z,1.67
2023-08-14T10:15:36.336Z,1.50
2023-08-14T10:18:11.132Z,1.80
2023-08-14T10:20:38.659Z,1.90
2023-08-14T10:23:07.703Z,1.33
2023-08-14T10:25:39.420Z,1.45
2023-08-14T10:28:10.520Z,1.55
2023-08-14T10:30:37.480Z,1.77
2023-08-14T10:33:05.003Z,1.63
2023-08-14T10:35:57.165Z,1.95
2023-08-14T10:38:40.247Z,1.67
2023-08-14T10:41:08.412Z,1.70
2023-08-14T10:43:35.095Z,1.95
2023-08-14T10:46:12.468Z,1.63
2023-08-14T10:48:39.718Z,1.50
2023-08-14T10:51:10.519Z,1.70
2023-08-14T10:53:38.158Z,1.85
2023-08-14T10:56:08.566Z,2.17
2023-08-14T10:58:38.238Z,2.20
2023-08-14T11:01:11.623Z,1.95
2023-08-14T11:03:57.409Z,2.03
2023-08-14T11:06:28.073Z,1.90
2023-08-14T11:08:59.900Z,2.10
2023-08-14T11:11:27.574Z,1.90
2023-08-14T11:13:54.690Z,2.10
2023-08-14T11:16:22.014Z,2.03
2023-08-14T11:18:49.121Z,2.00
2023-08-14T11:21:30.756Z,2.28
2023-08-14T11:23:58.611Z,1.98
2023-08-14T11:26:29.696Z,1.85
2023-08-14T11:28:56.326Z,2.40
2023-08-14T11:31:30.874Z,2.10
2023-08-14T11:34:01.452Z,2.00
2023-08-14T11:36:34.583Z,1.95
2023-08-14T11:39:01.772Z,2.28
2023-08-14T11:43:58.112Z,2.00
2023-08-14T11:46:25.206Z,2.00
2023-08-14T11:48:51.894Z,1.67
2023-08-14T11:51:19.503Z,1.60
2023-08-14T11:53:46.499Z,2.23
2023-08-14T11:56:13.563Z,1.77
2023-08-14T11:58:40.646Z,1.70
2023-08-14T12:03:36.168Z,1.92
2023-08-14T12:06:05.175Z,1.80
2023-08-14T12:08:32.022Z,1.92
2023-08-14T12:10:59.122Z,1.80
2023-08-14T12:13:25.947Z,1.77
2023-08-14T12:15:53.381Z,2.28
2023-08-14T12:18:25.622Z,1.98
2023-08-14T12:20:53.595Z,1.70
2023-08-14T12:23:24.348Z,2.08
2023-08-14T12:25:52.087Z,2.38
2023-08-14T12:28:19.853Z,1.90
2023-08-14T12:30:48.131Z,2.17
2023-08-14T12:35:42.030Z,1.90
2023-08-14T12:38:08.663Z,2.05
2023-08-14T12:40:35.814Z,2.15
2023-08-14T12:43:02.802Z,1.88
2023-08-14T12:45:29.453Z,1.77
2023-08-14T12:47:56.164Z,2.10
2023-08-14T12:50:22.881Z,1.75
2023-08-14T12:52:49.581Z,1.80
2023-08-14T12:55:18.925Z,2.13
2023-08-14T12:57:47.794Z,2.20
2023-08-14T13:00:15.828Z,2.10
2023-08-14T13:02:42.512Z,2.00
2023-08-14T13:05:09.316Z,2.05
2023-08-14T13:07:36.519Z,1.90
2023-08-14T13:10:03.788Z,2.22
2023-08-14T13:12:30.445Z,1.70
2023-08-14T13:14:57.230Z,1.90
2023-08-14T13:17:23.996Z,2.13
2023-08-14T13:19:51.580Z,2.20
2023-08-14T13:22:18.581Z,2.20
2023-08-14T13:24:45.391Z,2.33
2023-08-14T13:27:12.003Z,2.33
2023-08-14T13:29:39.005Z,2.97
2023-08-14T13:32:06.280Z,2.30
2023-08-14T13:34:33.277Z,2.30
2023-08-14T13:37:00.011Z,2.05
2023-08-14T13:39:26.654Z,2.08
2023-08-14T13:41:54.181Z,2.42
2023-08-14T13:44:20.870Z,2.00
2023-08-14T13:46:47.679Z,2.38
2023-08-14T13:49:14.280Z,1.90
2023-08-14T13:51:45.694Z,2.17
2023-08-14T13:54:12.685Z,1.98
2023-08-14T13:56:39.453Z,2.30
2023-08-14T13:59:06.208Z,1.88
2023-08-14T14:01:32.961Z,2.03
2023-08-14T14:03:59.555Z,2.35
2023-08-14T14:06:26.232Z,2.25
2023-08-14T14:08:52.893Z,1.90
2023-08-14T14:11:19.491Z,1.90
2023-08-14T14:13:46.191Z,2.03
2023-08-14T14:16:13.113Z,2.08
2023-08-14T14:18:39.740Z,2.22
2023-08-14T14:21:06.620Z,1.85
2023-08-14T14:23:33.360Z,1.90
2023-08-14T14:25:59.982Z,1.98
2023-08-14T14:28:29.765Z,2.08
2023-08-14T14:30:57.070Z,2.30
2023-08-14T14:33:23.617Z,2.42
2023-08-14T14:35:50.190Z,2.03
2023-08-14T14:38:16.818Z,2.00
2023-08-14T14:40:43.427Z,2.55
2023-08-14T14:43:10.093Z,2.17
2023-08-14T14:45:36.757Z,2.70
2023-08-14T14:48:03.916Z,2.58
2023-08-14T14:50:31.205Z,2.70
2023-08-14T14:52:58.819Z,2.63
2023-08-14T14:55:28.550Z,2.40
2023-08-14T14:57:55.289Z,3.00
2023-08-14T15:00:22.192Z,2.60
2023-08-14T15:02:48.996Z,2.47
2023-08-14T15:05:27.601Z,2.70
2023-08-14T15:07:56.034Z,2.60
2023-08-14T15:10:22.716Z,3.05
2023-08-14T15:12:49.448Z,2.97
2023-08-14T15:15:16.162Z,2.85
2023-08-14T15:17:44.965Z,2.47
2023-08-14T15:20:16.659Z,2.75
2023-08-14T15:22:46.252Z,3.05
2023-08-14T15:25:13.300Z,2.80
2023-08-14T15:27:39.987Z,3.00
2023-08-14T15:32:53.998Z,2.67
2023-08-14T15:35:21.078Z,2.70
2023-08-14T15:37:47.892Z,2.42
2023-08-14T15:40:14.754Z,2.65
2023-08-14T15:42:41.415Z,2.88
2023-08-14T15:45:09.191Z,2.50
2023-08-14T15:47:37.154Z,2.70
2023-08-14T15:50:05.057Z,3.28
2023-08-14T15:52:32.139Z,3.47
2023-08-14T15:54:59.761Z,3.50
2023-08-14T15:57:26.998Z,3.20
2023-08-14T15:59:54.096Z,2.97
2023-08-14T16:02:22.578Z,2.90
2023-08-14T16:04:52.206Z,3.30
2023-08-14T16:07:19.453Z,3.15
2023-08-14T16:09:50.446Z,3.20
2023-08-14T16:12:17.155Z,3.40
2023-08-14T16:14:43.810Z,3.15
2023-08-14T16:17:11.866Z,3.25
2023-08-14T16:19:39.005Z,3.33
2023-08-14T16:22:06.026Z,3.33
2023-08-14T16:24:32.899Z,3.35
2023-08-14T16:27:00.610Z,3.70
2023-08-14T16:29:27.506Z,3.55
2023-08-14T16:31:54.218Z,3.40
2023-08-14T16:34:21.069Z,3.42
2023-08-14T16:36:47.802Z,3.83
2023-08-14T16:39:16.169Z,3.70
2023-08-14T16:41:44.734Z,3.05
2023-08-14T16:44:12.375Z,3.40
2023-08-14T16:46:39.484Z,3.67
2023-08-14T16:49:08.253Z,3.63
2023-08-14T16:51:34.915Z,3.28
2023-08-14T16:54:01.527Z,3.25
2023-08-14T16:56:28.164Z,3.63
2023-08-14T16:58:54.778Z,3.05
2023-08-14T17:01:21.626Z,3.58
2023-08-14T17:03:48.222Z,3.50
2023-08-14T17:06:14.924Z,3.25
2023-08-14T17:08:41.631Z,3.10
2023-08-14T17:11:08.312Z,3.53
2023-08-14T17:13:34.960Z,3.85
2023-08-14T17:16:01.975Z,4.00
2023-08-14T17:18:29.139Z,3.45
2023-08-14T17:20:55.753Z,3.50
2023-08-14T17:23:22.409Z,3.28
2023-08-14T17:25:59.352Z,3.67
2023-08-14T17:28:28.184Z,3.83
2023-08-14T17:30:58.895Z,3.35
2023-08-14T17:33:26.160Z,3.42
2023-08-14T17:35:53.071Z,3.78
2023-08-14T17:38:19.704Z,3.40
2023-08-14T17:40:53.484Z,3.70
2023-08-14T17:43:20.627Z,3.92
2023-08-14T17:45:50.148Z,3.97
2023-08-14T17:48:17.066Z,3.67
2023-08-14T17:50:43.764Z,4.38
2023-08-14T17:53:11.390Z,3.88
2023-08-14T17:55:38.512Z,4.00
2023-08-14T17:58:05.208Z,3.45
2023-08-14T18:00:31.921Z,3.92
2023-08-14T18:02:58.569Z,4.43
2023-08-14T18:05:25.618Z,4.05
2023-08-14T18:07:52.309Z,3.97
2023-08-14T18:10:19.739Z,3.95
2023-08-14T18:12:46.565Z,4.18
2023-08-14T18:15:13.240Z,4.20
2023-08-14T18:17:40.213Z,4.28
2023-08-14T18:20:08.724Z,4.28
2023-08-14T18:22:35.496Z,4.47
2023-08-14T18:25:02.164Z,4.60
2023-08-14T18:27:29.294Z,4.45
2023-08-14T18:29:56.047Z,4.80
2023-08-14T18:32:23.411Z,4.57
2023-08-14T18:34:50.002Z,5.10
2023-08-14T18:37:16.629Z,4.95
2023-08-14T18:39:43.261Z,4.95
2023-08-14T18:42:09.886Z,4.50
2023-08-14T18:44:36.500Z,4.78
2023-08-14T18:47:03.220Z,4.82
2023-08-14T18:49:30.726Z,4.90
2023-08-14T18:51:57.372Z,4.93
2023-08-14T18:54:24.103Z,4.95
2023-08-14T18:56:50.688Z,4.75
2023-08-14T18:59:23.328Z,5.30
2023-08-14T19:01:51.077Z,5.07
2023-08-14T19:04:25.611Z,5.45
2023-08-14T19:06:56.082Z,5.70
2023-08-14T19:09:22.643Z,5.20
2023-08-14T19:11:49.307Z,5.78
2023-08-14T19:14:15.992Z,5.47
2023-08-14T19:16:42.748Z,5.78
2023-08-14T19:19:09.568Z,5.82
2023-08-14T19:21:36.258Z,5.90
2023-08-14T19:24:02.955Z,5.82
2023-08-14T19:26:29.535Z,5.85
2023-08-14T19:28:56.217Z,6.53
2023-08-14T19:31:23.803Z,6.38
2023-08-14T19:33:51.188Z,6.10
2023-08-14T19:36:17.883Z,5.55
2023-08-14T19:38:44.562Z,5.63
2023-08-14T19:41:11.152Z,6.05
2023-08-14T19:43:37.777Z,7.38
2023-08-14T19:46:04.597Z,6.72
2023-08-14T19:48:31.469Z,6.82
2023-08-14T19:50:58.467Z,6.72
2023-08-14T19:53:25.112Z,6.10
2023-08-14T19:55:52.591Z,6.75
2023-08-14T19:58:19.304Z,6.63
2023-08-14T20:00:45.950Z,5.90
2023-08-14T20:03:12.810Z,6.47
2023-08-14T20:05:42.284Z,6.20
2023-08-14T20:08:08.915Z,5.78
2023-08-14T20:10:35.530Z,6.38
2023-08-14T20:13:02.136Z,7.35
2023-08-14T20:15:28.712Z,7.15
2023-08-14T20:17:55.482Z,7.40
2023-08-14T20:20:22.158Z,7.35
2023-08-14T20:22:48.907Z,7.43
2023-08-14T20:25:15.751Z,7.82
2023-08-14T20:27:42.679Z,8.55
2023-08-14T20:30:09.947Z,7.45
2023-08-14T20:32:36.952Z,7.30
2023-08-14T20:35:08.583Z,7.13
2023-08-14T20:37:35.354Z,7.65
2023-08-14T20:40:02.298Z,8.48
2023-08-14T20:42:29.017Z,8.50
2023-08-14T20:44:55.606Z,8.80
2023-08-14T20:47:22.555Z,8.48
2023-08-14T20:49:49.280Z,8.88
2023-08-14T20:52:15.984Z,8.63
2023-08-14T20:54:42.602Z,8.50
2023-08-14T20:57:09.249Z,8.48
2023-08-14T20:59:37.320Z,8.77
2023-08-14T21:02:04.014Z,8.45
2023-08-14T21:04:30.610Z,7.80
2023-08-14T21:06:57.302Z,7.97
2023-08-14T21:09:23.928Z,7.45
2023-08-14T21:11:50.614Z,8.10
2023-08-14T21:14:17.588Z,7.60
2023-08-14T21:16:44.284Z,8.00
2023-08-14T21:19:11.006Z,7.53
2023-08-14T21:21:37.685Z,7.90
2023-08-14T21:24:04.727Z,7.72
2023-08-14T21:26:31.581Z,7.85
2023-08-14T21:28:58.393Z,7.85
2023-08-14T21:31:24.970Z,8.18
2023-08-14T21:33:52.296Z,8.02
2023-08-14T21:36:19.146Z,8.43
2023-08-14T21:38:45.751Z,7.53
2023-08-14T21:41:12.496Z,7.22
2023-08-14T21:43:39.877Z,8.05
2023-08-14T21:46:06.665Z,8.02
2023-08-14T21:48:33.633Z,7.80
2023-08-14T21:51:00.298Z,7.68
2023-08-14T21:53:26.907Z,8.10
2023-08-14T21:55:53.555Z,7.57
2023-08-14T21:58:20.126Z,7.45
2023-08-14T22:00:47.373Z,8.05
2023-08-14T22:03:13.959Z,8.20
2023-08-14T22:05:41.234Z,8.55
2023-08-14T22:08:07.777Z,8.70
2023-08-14T22:10:34.690Z,8.60
2023-08-14T22:13:01.280Z,9.00
2023-08-14T22:15:44.119Z,9.05
2023-08-14T22:18:13.683Z,7.97
2023-08-14T22:20:40.955Z,9.02
2023-08-14T22:23:07.503Z,10.13
2023-08-14T22:25:34.264Z,9.50
2023-08-14T22:28:00.872Z,10.00
2023-08-14T22:30:27.474Z,9.73
2023-08-14T22:32:54.151Z,8.07
2023-08-14T22:35:20.874Z,9.88
2023-08-14T22:37:47.468Z,8.02
2023-08-14T22:40:14.391Z,8.20
2023-08-14T22:42:40.978Z,8.18
2023-08-14T22:45:08.846Z,8.73
2023-08-14T22:47:35.557Z,7.38
2023-08-14T22:50:02.156Z,7.47
2023-08-14T22:52:28.759Z,7.75
2023-08-14T22:54:55.430Z,7.40
2023-08-14T22:57:22.427Z,7.43
2023-08-14T22:59:49.272Z,7.40
2023-08-14T23:02:15.959Z,6.97
2023-08-14T23:04:42.550Z,6.68
2023-08-14T23:07:09.182Z,7.07
2023-08-14T23:09:35.797Z,7.15
2023-08-14T23:12:02.475Z,7.20
2023-08-14T23:14:29.113Z,6.95
2023-08-14T23:16:55.797Z,7.10
2023-08-14T23:19:23.007Z,7.32
2023-08-14T23:21:49.610Z,6.80
2023-08-14T23:24:16.328Z,6.90
2023-08-14T23:26:42.966Z,7.35
2023-08-14T23:29:09.597Z,7.20
2023-08-14T23:31:36.241Z,7.50
2023-08-14T23:34:03.012Z,7.63
2023-08-14T23:36:30.724Z,8.05
2023-08-14T23:38:57.391Z,7.90
2023-08-14T23:41:23.987Z,7.50
2023-08-14T23:43:50.587Z,7.32
2023-08-14T23:46:17.373Z,7.47
2023-08-14T23:48:43.928Z,8.25
2023-08-14T23:51:10.463Z,8.05
2023-08-14T23:53:37.071Z,8.00
2023-08-14T23:56:03.674Z,8.65
2023-08-14T23:58:30.281Z,8.52
